createdAt,value
2019-02-19T00:00:00.349Z,16.90
2019-02-19T00:02:28.731Z,20.50
2019-02-19T00:04:57.015Z,15.23
2019-02-19T00:07:25.291Z,17.50
2019-02-19T00:09:53.554Z,15.83
2019-02-19T00:12:21.837Z,17.03
2019-02-19T00:14:50.113Z,16.50
2019-02-19T00:17:18.410Z,17.67
2019-02-19T00:19:46.682Z,14.43
2019-02-19T00:22:14.967Z,14.43
2019-02-19T00:24:43.234Z,17.33
2019-02-19T00:27:11.545Z,15.97
2019-02-19T00:29:39.790Z,15.83
2019-02-19T00:32:08.065Z,14.97
2019-02-19T00:34:36.328Z,13.23
2019-02-19T00:37:04.616Z,16.77
2019-02-19T00:39:32.880Z,12.93
2019-02-19T00:42:01.158Z,16.03
2019-02-19T00:44:29.424Z,13.20
2019-02-19T00:46:57.678Z,15.47
2019-02-19T00:49:25.974Z,17.90
2019-02-19T00:51:54.254Z,13.97
2019-02-19T00:54:22.503Z,15.40
2019-02-19T00:56:50.782Z,15.30
2019-02-19T00:59:19.042Z,17.10
2019-02-19T01:01:47.315Z,13.30
2019-02-19T01:04:15.679Z,13.70
2019-02-19T01:06:43.924Z,12.07
2019-02-19T01:09:12.213Z,15.20
2019-02-19T01:11:40.468Z,16.63
2019-02-19T01:14:08.773Z,17.07
2019-02-19T01:16:37.086Z,14.13
2019-02-19T01:19:05.369Z,12.83
2019-02-19T01:21:33.625Z,14.60
2019-02-19T01:24:01.914Z,15.03
2019-02-19T01:26:30.178Z,15.77
2019-02-19T01:28:58.471Z,15.30
2019-02-19T01:31:26.783Z,13.90
2019-02-19T01:33:55.078Z,14.93
2019-02-19T01:36:23.323Z,14.07
2019-02-19T01:38:51.619Z,12.23
2019-02-19T01:41:19.868Z,16.83
2019-02-19T01:43:48.162Z,15.93
2019-02-19T01:46:16.429Z,13.43
2019-02-19T01:48:44.704Z,14.37
2019-02-19T01:51:12.985Z,16.27
2019-02-19T01:53:41.239Z,13.27
2019-02-19T01:56:09.514Z,18.77
2019-02-19T01:58:37.824Z,16.60
2019-02-19T02:01:06.098Z,16.43
2019-02-19T02:03:34.398Z,17.63
2019-02-19T02:06:02.651Z,16.63
2019-02-19T02:08:30.916Z,14.97
2019-02-19T02:10:59.198Z,16.30
2019-02-19T02:13:27.465Z,15.23
2019-02-19T02:15:55.738Z,17.27
2019-02-19T02:18:24.005Z,14.33
2019-02-19T02:20:52.295Z,16.10
2019-02-19T02:23:20.555Z,14.57
2019-02-19T02:25:48.849Z,17.07
2019-02-19T02:28:17.105Z,14.30
2019-02-19T02:30:45.385Z,15.87
2019-02-19T02:33:13.640Z,16.87
2019-02-19T02:35:41.936Z,14.90
2019-02-19T02:38:10.201Z,15.27
2019-02-19T02:40:38.488Z,13.53
2019-02-19T02:43:06.765Z,15.77
2019-02-19T02:45:35.060Z,14.13
2019-02-19T02:48:03.305Z,14.57
2019-02-19T02:50:31.615Z,11.97
2019-02-19T02:52:59.859Z,12.53
2019-02-19T02:55:28.154Z,15.23
2019-02-19T02:57:56.430Z,12.70
2019-02-19T03:00:24.776Z,15.87
2019-02-19T03:02:53.034Z,13.67
2019-02-19T03:05:21.270Z,13.47
2019-02-19T03:07:51.201Z,14.93
2019-02-19T03:10:19.468Z,15.50
2019-02-19T03:12:47.830Z,11.20
2019-02-19T03:15:16.556Z,15.17
2019-02-19T03:17:44.841Z,13.00
2019-02-19T03:20:13.089Z,15.60
2019-02-19T03:22:41.373Z,13.90
2019-02-19T03:25:09.639Z,14.03
2019-02-19T03:27:37.904Z,16.17
2019-02-19T03:30:08.900Z,15.27
2019-02-19T03:32:37.251Z,15.47
2019-02-19T03:35:05.665Z,16.93
2019-02-19T03:37:33.952Z,13.13
2019-02-19T03:40:02.197Z,13.37
2019-02-19T03:42:30.508Z,14.50
2019-02-19T03:44:58.756Z,13.27
2019-02-19T03:47:27.057Z,12.43
2019-02-19T03:49:55.305Z,11.50
2019-02-19T03:52:23.600Z,14.60
2019-02-19T03:54:51.956Z,14.00
2019-02-19T03:57:20.218Z,16.30
2019-02-19T03:59:48.489Z,15.87
2019-02-19T04:02:16.755Z,14.87
2019-02-19T04:04:45.034Z,13.57
2019-02-19T04:07:13.294Z,15.10
2019-02-19T04:09:41.585Z,15.63
2019-02-19T04:12:09.848Z,14.10
2019-02-19T04:14:38.123Z,14.37
2019-02-19T04:17:06.397Z,16.97
2019-02-19T04:19:34.755Z,16.57
2019-02-19T04:22:03.019Z,13.93
2019-02-19T04:24:31.300Z,18.13
2019-02-19T04:26:59.560Z,17.57
2019-02-19T04:29:27.843Z,15.00
2019-02-19T04:31:56.102Z,14.73
2019-02-19T04:34:24.380Z,13.70
2019-02-19T04:36:52.645Z,13.70
2019-02-19T04:39:20.941Z,12.63
2019-02-19T04:41:49.198Z,14.60
2019-02-19T04:44:17.484Z,12.10
2019-02-19T04:46:45.785Z,15.07
2019-02-19T04:49:14.053Z,13.33
2019-02-19T04:51:42.329Z,14.80
2019-02-19T04:54:10.603Z,12.20
2019-02-19T04:56:38.883Z,12.53
2019-02-19T04:59:07.152Z,14.27
2019-02-19T05:01:35.439Z,17.47
2019-02-19T05:04:03.715Z,12.53
2019-02-19T05:06:31.997Z,13.87
2019-02-19T05:09:00.262Z,13.20
2019-02-19T05:11:28.560Z,14.30
2019-02-19T05:13:56.804Z,12.40
2019-02-19T05:16:25.100Z,13.73
2019-02-19T05:18:53.428Z,16.90
2019-02-19T05:21:21.702Z,13.53
2019-02-19T05:23:49.958Z,13.13
2019-02-19T05:26:18.236Z,11.83
2019-02-19T05:28:46.494Z,12.60
2019-02-19T05:31:14.775Z,14.70
2019-02-19T05:33:43.104Z,13.20
2019-02-19T05:36:11.456Z,12.20
2019-02-19T05:38:39.717Z,14.00
2019-02-19T05:41:08.001Z,15.70
2019-02-19T05:43:36.263Z,12.60
2019-02-19T05:46:04.565Z,12.33
2019-02-19T05:48:32.840Z,13.87
2019-02-19T05:51:01.115Z,13.00
2019-02-19T05:53:29.413Z,14.80
2019-02-19T05:55:57.689Z,15.30
2019-02-19T05:58:25.970Z,13.83
2019-02-19T06:00:54.229Z,16.67
2019-02-19T06:03:22.524Z,15.50
2019-02-19T06:05:50.804Z,17.60
2019-02-19T06:08:19.094Z,18.83
2019-02-19T06:10:47.429Z,15.77
2019-02-19T06:13:15.723Z,20.43
2019-02-19T06:15:43.992Z,21.40
2019-02-19T06:18:12.288Z,20.70
2019-02-19T06:20:40.554Z,15.60
2019-02-19T06:23:08.917Z,26.73
2019-02-19T06:25:37.198Z,32.93
2019-02-19T06:28:05.486Z,32.50
2019-02-19T06:30:33.745Z,24.00
2019-02-19T06:33:02.097Z,21.70
2019-02-19T06:35:30.434Z,17.57
2019-02-19T06:37:58.767Z,16.57
2019-02-19T06:40:28.374Z,17.97
2019-02-19T06:42:56.689Z,22.40
2019-02-19T06:45:24.953Z,38.10
2019-02-19T06:47:53.240Z,44.67
2019-02-19T06:50:21.529Z,38.33
2019-02-19T06:52:49.829Z,43.00
2019-02-19T06:55:18.139Z,22.80
2019-02-19T06:57:46.377Z,19.03
2019-02-19T07:00:14.658Z,21.43
2019-02-19T07:02:44.576Z,20.30
2019-02-19T07:05:14.494Z,18.90
2019-02-19T07:07:42.778Z,31.40
2019-02-19T07:10:11.067Z,32.50
2019-02-19T07:12:39.311Z,30.80
2019-02-19T07:15:08.907Z,33.57
2019-02-19T07:17:37.189Z,31.37
2019-02-19T07:20:09.910Z,36.57
2019-02-19T07:22:38.207Z,33.67
2019-02-19T07:25:09.358Z,38.97
2019-02-19T07:27:37.657Z,28.03
2019-02-19T07:30:08.613Z,32.10
2019-02-19T07:32:36.866Z,27.03
2019-02-19T07:35:07.387Z,35.67
2019-02-19T07:37:35.653Z,35.70
2019-02-19T07:40:04.689Z,39.57
2019-02-19T07:42:32.952Z,34.43
2019-02-19T07:45:01.255Z,37.63
2019-02-19T07:47:29.515Z,39.37
2019-02-19T07:49:57.813Z,38.00
2019-02-19T07:52:26.057Z,33.20
2019-02-19T07:54:54.349Z,37.57
2019-02-19T07:57:22.599Z,37.13
2019-02-19T07:59:50.892Z,29.57
2019-02-19T08:02:19.152Z,32.83
2019-02-19T08:04:47.498Z,36.07
2019-02-19T08:07:15.807Z,36.93
2019-02-19T08:09:44.073Z,34.63
2019-02-19T08:12:12.383Z,36.07
2019-02-19T08:14:40.712Z,38.70
2019-02-19T08:17:08.999Z,33.70
2019-02-19T08:19:37.268Z,33.97
2019-02-19T08:22:05.556Z,30.87
2019-02-19T08:24:33.830Z,37.60
2019-02-19T08:27:02.239Z,37.40
2019-02-19T08:29:30.578Z,31.77
2019-02-19T08:31:58.873Z,33.90
2019-02-19T08:34:27.148Z,38.90
2019-02-19T08:36:55.438Z,35.37
2019-02-19T08:39:23.740Z,33.60
2019-02-19T08:41:56.488Z,34.87
2019-02-19T08:44:24.753Z,31.93
2019-02-19T08:46:53.057Z,33.33
2019-02-19T08:49:21.295Z,33.50
2019-02-19T08:51:55.867Z,35.03
2019-02-19T08:54:19.577Z,32.83
2019-02-19T08:56:47.863Z,33.37
2019-02-19T08:59:16.142Z,35.17
2019-02-19T09:01:44.498Z,28.87
2019-02-19T09:04:12.784Z,31.50
2019-02-19T09:06:41.048Z,26.93
2019-02-19T09:09:09.337Z,27.67
2019-02-19T09:11:37.590Z,31.17
2019-02-19T09:14:05.883Z,30.40
2019-02-19T09:16:34.157Z,31.80
2019-02-19T09:19:02.470Z,28.70
2019-02-19T09:21:30.802Z,30.17
2019-02-19T09:23:59.084Z,30.13
2019-02-19T09:26:27.353Z,32.57
2019-02-19T09:28:55.643Z,28.10
2019-02-19T09:31:23.888Z,29.63
2019-02-19T09:33:52.177Z,30.40
2019-02-19T09:36:20.434Z,27.63
2019-02-19T09:38:48.732Z,28.73
2019-02-19T09:41:17.014Z,25.63
2019-02-19T09:43:45.298Z,30.23
2019-02-19T09:46:13.563Z,26.73
2019-02-19T09:48:41.874Z,29.43
2019-02-19T09:51:10.135Z,26.00
2019-02-19T09:53:38.429Z,33.50
2019-02-19T09:56:06.715Z,22.30
2019-02-19T09:58:34.974Z,24.97
2019-02-19T10:01:03.282Z,26.90
2019-02-19T10:03:31.584Z,20.97
2019-02-19T10:05:59.879Z,22.00
2019-02-19T10:08:28.166Z,26.77
2019-02-19T10:10:56.448Z,22.70
2019-02-19T10:13:25.196Z,19.40
2019-02-19T10:15:53.608Z,19.50
2019-02-19T10:18:21.872Z,24.13
2019-02-19T10:20:51.756Z,17.53
2019-02-19T10:23:20.212Z,15.00
2019-02-19T10:25:48.510Z,20.27
2019-02-19T10:28:16.795Z,24.80
2019-02-19T10:30:45.088Z,19.43
2019-02-19T10:33:13.353Z,21.00
2019-02-19T10:35:41.638Z,20.43
2019-02-19T10:38:09.889Z,20.73
2019-02-19T10:40:38.191Z,18.73
2019-02-19T10:43:06.439Z,11.97
2019-02-19T10:45:34.718Z,14.53
2019-02-19T10:48:03.025Z,16.40
2019-02-19T10:50:31.345Z,15.13
2019-02-19T10:52:59.658Z,14.90
2019-02-19T10:55:27.937Z,14.30
2019-02-19T10:57:56.273Z,14.80
2019-02-19T11:00:24.539Z,13.40
2019-02-19T11:02:52.948Z,11.77
2019-02-19T11:05:21.437Z,24.00
2019-02-19T11:07:49.727Z,10.90
2019-02-19T11:10:18.028Z,11.97
2019-02-19T11:12:46.372Z,12.93
2019-02-19T11:15:17.226Z,10.50
2019-02-19T11:17:45.383Z,13.77
2019-02-19T11:20:18.822Z,15.87
2019-02-19T11:22:47.128Z,12.27
2019-02-19T11:25:15.536Z,12.43
2019-02-19T11:27:43.833Z,12.57
2019-02-19T11:30:17.179Z,12.63
2019-02-19T11:32:45.477Z,8.33
2019-02-19T11:35:13.838Z,13.30
2019-02-19T11:37:42.134Z,8.40
2019-02-19T11:40:13.941Z,9.63
2019-02-19T11:42:42.231Z,8.80
2019-02-19T11:45:17.242Z,10.93
2019-02-19T11:47:45.543Z,11.20
2019-02-19T11:50:13.877Z,12.07
2019-02-19T11:52:42.171Z,8.40
2019-02-19T11:55:12.938Z,10.83
2019-02-19T11:57:41.877Z,7.77
2019-02-19T12:00:14.275Z,8.43
2019-02-19T12:02:42.562Z,7.50
2019-02-19T12:05:10.863Z,10.67
2019-02-19T12:07:39.195Z,5.53
2019-02-19T12:10:08.837Z,8.03
2019-02-19T12:12:37.156Z,10.17
2019-02-19T12:15:08.394Z,7.17
2019-02-19T12:17:36.663Z,8.73
2019-02-19T12:20:06.391Z,7.40
2019-02-19T12:22:34.668Z,6.67
2019-02-19T12:25:02.963Z,6.83
2019-02-19T12:27:31.269Z,10.17
2019-02-19T12:29:59.568Z,7.73
2019-02-19T12:32:27.826Z,11.37
2019-02-19T12:34:56.107Z,7.83
2019-02-19T12:37:24.375Z,6.63
2019-02-19T12:39:52.642Z,7.43
2019-02-19T12:42:20.908Z,12.43
2019-02-19T12:44:49.184Z,8.90
2019-02-19T12:47:17.461Z,10.23
2019-02-19T12:49:45.748Z,6.07
2019-02-19T12:52:14.047Z,7.03
2019-02-19T12:54:42.311Z,7.00
2019-02-19T12:57:10.592Z,6.13
2019-02-19T12:59:38.864Z,6.57
2019-02-19T13:02:07.157Z,8.87
2019-02-19T13:04:35.476Z,6.03
2019-02-19T13:07:03.772Z,8.33
2019-02-19T13:09:32.036Z,7.03
2019-02-19T13:12:00.398Z,7.70
2019-02-19T13:14:28.842Z,7.97
2019-02-19T13:16:57.127Z,6.40
2019-02-19T13:19:25.478Z,9.47
2019-02-19T13:21:53.833Z,7.73
2019-02-19T13:24:22.088Z,8.43
2019-02-19T13:26:50.387Z,9.67
2019-02-19T13:29:18.642Z,8.17
2019-02-19T13:31:46.930Z,6.77
2019-02-19T13:34:15.216Z,7.47
2019-02-19T13:36:43.501Z,5.07
2019-02-19T13:39:11.852Z,5.80
2019-02-19T13:41:40.128Z,5.17
2019-02-19T13:44:08.388Z,7.13
2019-02-19T13:46:36.647Z,10.40
2019-02-19T13:49:11.993Z,7.50
2019-02-19T13:51:34.971Z,5.80
2019-02-19T13:54:04.896Z,10.07
2019-02-19T13:56:33.203Z,8.63
2019-02-19T13:59:01.513Z,10.67
2019-02-19T14:01:29.795Z,7.13
2019-02-19T14:03:58.081Z,12.23
2019-02-19T14:06:26.409Z,8.67
2019-02-19T14:08:54.692Z,8.00
2019-02-19T14:11:22.959Z,6.17
2019-02-19T14:13:52.888Z,6.70
2019-02-19T14:16:22.775Z,9.23
2019-02-19T14:18:52.733Z,4.97
2019-02-19T14:21:40.535Z,5.33
2019-02-19T14:24:16.091Z,11.30
2019-02-19T14:26:46.024Z,9.23
2019-02-19T14:29:15.974Z,10.67
2019-02-19T14:31:48.548Z,6.70
2019-02-19T14:34:36.703Z,9.30
2019-02-19T14:37:22.655Z,7.97
2019-02-19T14:40:09.971Z,6.67
2019-02-19T14:42:45.048Z,11.00
2019-02-19T14:45:17.744Z,12.57
2019-02-19T14:48:03.749Z,10.40
2019-02-19T14:50:33.676Z,7.17
2019-02-19T14:53:12.652Z,7.33
2019-02-19T14:55:42.592Z,11.60
2019-02-19T14:58:15.166Z,9.70
2019-02-19T15:01:01.155Z,8.77
2019-02-19T15:03:34.034Z,9.13
2019-02-19T15:06:04.087Z,11.70
2019-02-19T15:08:37.044Z,10.33
2019-02-19T15:11:23.202Z,8.40
2019-02-19T15:13:55.968Z,9.37
2019-02-19T15:16:41.972Z,9.13
2019-02-19T15:19:27.939Z,7.37
2019-02-19T15:22:00.669Z,7.77
2019-02-19T15:24:39.702Z,12.00
2019-02-19T15:27:25.940Z,10.37
2019-02-19T15:30:13.789Z,16.00
2019-02-19T15:32:55.518Z,9.87
2019-02-19T15:35:39.982Z,9.73
2019-02-19T15:38:25.931Z,11.83
2019-02-19T15:41:01.946Z,10.03
2019-02-19T15:43:34.551Z,8.77
2019-02-19T15:46:04.511Z,19.13
2019-02-19T15:48:37.091Z,9.87
2019-02-19T15:51:06.989Z,13.37
2019-02-19T15:53:52.066Z,12.63
2019-02-19T15:56:37.037Z,10.97
2019-02-19T15:59:09.674Z,13.63
2019-02-19T16:01:51.721Z,13.00
2019-02-19T16:04:21.632Z,11.37
2019-02-19T16:06:57.562Z,8.53
2019-02-19T16:09:27.476Z,8.50
2019-02-19T16:12:00.190Z,12.13
2019-02-19T16:14:39.197Z,7.67
2019-02-19T16:17:24.295Z,7.57
2019-02-19T16:20:00.309Z,12.03
2019-02-19T16:22:39.127Z,15.33
2019-02-19T16:25:25.902Z,9.67
2019-02-19T16:28:10.682Z,10.50
2019-02-19T16:30:43.654Z,10.47
2019-02-19T16:33:31.488Z,11.30
2019-02-19T16:36:07.322Z,12.77
2019-02-19T16:38:46.217Z,8.20
2019-02-19T16:41:25.132Z,12.30
2019-02-19T16:43:57.781Z,12.60
2019-02-19T16:46:39.282Z,7.40
2019-02-19T16:49:15.326Z,9.57
2019-02-19T16:51:45.227Z,12.70
2019-02-19T16:54:20.838Z,8.80
2019-02-19T16:56:53.685Z,10.13
2019-02-19T16:59:23.688Z,14.47
2019-02-19T17:02:09.612Z,11.37
2019-02-19T17:04:55.719Z,9.77
2019-02-19T17:07:37.717Z,8.00
2019-02-19T17:10:10.892Z,8.27
2019-02-19T17:12:49.790Z,9.53
2019-02-19T17:15:30.011Z,8.87
2019-02-19T17:18:14.821Z,12.70
2019-02-19T17:20:47.421Z,15.27
2019-02-19T17:23:20.370Z,12.17
2019-02-19T17:25:59.398Z,12.63
2019-02-19T17:28:38.121Z,11.37
2019-02-19T17:31:08.056Z,7.30
2019-02-19T17:33:40.661Z,11.80
2019-02-19T17:36:10.581Z,11.50
2019-02-19T17:38:43.176Z,14.90
2019-02-19T17:41:21.960Z,12.47
2019-02-19T17:43:51.867Z,7.90
2019-02-19T17:46:30.657Z,9.30
2019-02-19T17:49:00.556Z,11.97
2019-02-19T17:51:30.474Z,9.40
2019-02-19T17:54:02.943Z,11.97
2019-02-19T17:56:38.657Z,15.40
2019-02-19T17:59:23.739Z,12.03
2019-02-19T18:01:53.681Z,12.50
2019-02-19T18:04:23.583Z,10.37
2019-02-19T18:06:53.618Z,12.57
2019-02-19T18:09:29.439Z,13.20
2019-02-19T18:12:15.798Z,11.87
2019-02-19T18:14:57.423Z,9.07
2019-02-19T18:17:27.415Z,12.93
2019-02-19T18:19:56.118Z,14.60
2019-02-19T18:22:24.691Z,11.63
2019-02-19T18:24:53.266Z,8.73
2019-02-19T18:27:21.867Z,16.77
2019-02-19T18:29:50.221Z,14.90
2019-02-19T18:32:18.496Z,16.10
2019-02-19T18:34:46.776Z,11.57
2019-02-19T18:37:15.173Z,17.20
2019-02-19T18:39:43.540Z,12.90
2019-02-19T18:42:11.890Z,15.67
2019-02-19T18:44:40.233Z,19.20
2019-02-19T18:47:08.481Z,25.60
2019-02-19T18:49:36.747Z,19.93
2019-02-19T18:52:05.017Z,18.03
2019-02-19T18:54:33.310Z,17.00
2019-02-19T18:57:01.577Z,17.67
2019-02-19T18:59:29.936Z,12.63
2019-02-19T19:01:58.196Z,16.00
2019-02-19T19:04:26.482Z,18.53
2019-02-19T19:06:54.766Z,15.37
2019-02-19T19:09:23.057Z,11.97
2019-02-19T19:11:51.322Z,11.50
2019-02-19T19:14:19.624Z,12.37
2019-02-19T19:16:47.881Z,16.37
2019-02-19T19:19:16.193Z,10.23
2019-02-19T19:21:44.477Z,14.33
2019-02-19T19:24:12.875Z,24.20
2019-02-19T19:26:41.200Z,19.90
2019-02-19T19:29:09.475Z,12.23
2019-02-19T19:31:37.778Z,11.80
2019-02-19T19:34:06.105Z,20.03
2019-02-19T19:36:34.397Z,14.63
2019-02-19T19:39:02.912Z,15.77
2019-02-19T19:41:31.226Z,11.53
2019-02-19T19:43:59.553Z,13.70
2019-02-19T19:46:28.751Z,13.27
2019-02-19T19:48:57.078Z,11.57
2019-02-19T19:51:25.371Z,11.70
2019-02-19T19:53:53.667Z,8.37
2019-02-19T19:56:22.026Z,9.13
2019-02-19T19:58:50.361Z,12.93
2019-02-19T20:01:18.692Z,9.27
2019-02-19T20:03:46.990Z,9.37
2019-02-19T20:06:15.267Z,9.30
2019-02-19T20:08:43.577Z,10.80
2019-02-19T20:11:11.882Z,11.87
2019-02-19T20:13:40.231Z,10.37
2019-02-19T20:16:08.490Z,11.73
2019-02-19T20:18:39.186Z,14.07
2019-02-19T20:21:06.822Z,12.37
2019-02-19T20:23:35.111Z,11.60
2019-02-19T20:26:03.505Z,13.50
2019-02-19T20:28:31.886Z,9.83
2019-02-19T20:31:00.141Z,13.60
2019-02-19T20:33:28.438Z,18.10
2019-02-19T20:35:56.691Z,17.37
2019-02-19T20:38:24.982Z,16.37
2019-02-19T20:40:53.270Z,16.50
2019-02-19T20:43:21.637Z,13.70
2019-02-19T20:45:49.907Z,19.63
2019-02-19T20:48:18.196Z,21.37
2019-02-19T20:50:46.487Z,15.57
2019-02-19T20:53:14.821Z,15.43
2019-02-19T20:55:43.089Z,15.20
2019-02-19T20:58:11.427Z,20.23
2019-02-19T21:00:39.683Z,21.37
2019-02-19T21:03:07.957Z,16.67
2019-02-19T21:05:36.326Z,14.40
2019-02-19T21:08:04.615Z,15.53
2019-02-19T21:10:32.910Z,17.40
2019-02-19T21:13:01.205Z,20.80
2019-02-19T21:15:29.491Z,16.23
2019-02-19T21:17:57.761Z,16.30
2019-02-19T21:20:26.052Z,17.13
2019-02-19T21:22:54.320Z,16.43
2019-02-19T21:25:30.781Z,17.37
2019-02-19T21:27:52.591Z,16.27
2019-02-19T21:30:20.880Z,17.23
2019-02-19T21:32:49.213Z,17.57
2019-02-19T21:35:17.507Z,15.93
2019-02-19T21:37:45.763Z,16.77
2019-02-19T21:40:15.000Z,16.37
2019-02-19T21:42:43.286Z,25.57
2019-02-19T21:45:15.223Z,15.53
2019-02-19T21:47:43.486Z,16.87
2019-02-19T21:50:12.820Z,13.47
2019-02-19T21:52:41.092Z,22.43
2019-02-19T21:55:12.827Z,13.97
2019-02-19T21:57:41.117Z,16.50
2019-02-19T22:00:16.350Z,14.77
2019-02-19T22:02:44.608Z,15.27
2019-02-19T22:05:12.918Z,13.13
2019-02-19T22:07:41.195Z,12.37
2019-02-19T22:10:13.412Z,15.03
2019-02-19T22:12:41.759Z,13.37
2019-02-19T22:15:11.782Z,13.47
2019-02-19T22:17:40.142Z,16.63
2019-02-19T22:20:35.997Z,14.73
2019-02-19T22:23:04.474Z,11.17
2019-02-19T22:25:32.790Z,15.60
2019-02-19T22:28:01.065Z,17.57
2019-02-19T22:30:29.335Z,16.80
2019-02-19T22:32:57.617Z,15.33
2019-02-19T22:35:25.871Z,17.77
2019-02-19T22:37:54.150Z,15.70
2019-02-19T22:40:22.425Z,14.33
2019-02-19T22:42:50.775Z,12.43
2019-02-19T22:45:19.040Z,13.43
2019-02-19T22:47:53.258Z,12.63
2019-02-19T22:50:17.291Z,16.03
2019-02-19T22:52:45.584Z,12.23
2019-02-19T22:55:24.540Z,13.23
2019-02-19T22:57:52.811Z,15.30
2019-02-19T23:00:49.221Z,12.97
2019-02-19T23:03:19.178Z,16.17
2019-02-19T23:05:47.424Z,14.50
2019-02-19T23:08:15.696Z,15.47
2019-02-19T23:10:43.962Z,17.00
2019-02-19T23:13:12.256Z,14.60
2019-02-19T23:15:40.516Z,18.87
2019-02-19T23:18:08.797Z,15.80
2019-02-19T23:20:37.054Z,18.27
2019-02-19T23:23:05.336Z,17.93
2019-02-19T23:25:33.656Z,16.43
2019-02-19T23:28:02.020Z,14.93
2019-02-19T23:30:30.276Z,19.93
2019-02-19T23:32:58.587Z,15.37
2019-02-19T23:35:34.480Z,14.70
2019-02-19T23:38:02.772Z,16.23
2019-02-19T23:40:31.094Z,12.27
2019-02-19T23:42:59.380Z,14.47
2019-02-19T23:45:27.654Z,9.53
2019-02-19T23:47:55.921Z,14.63
2019-02-19T23:50:24.218Z,14.77
2019-02-19T23:52:52.466Z,11.33
2019-02-19T23:55:20.760Z,12.67
2019-02-19T23:57:49.016Z,12.57
